sensor_id;sensor_type;location;lat;lon;timestamp;pressure;altitude;pressure_sealevel;temperature;humidity
72857;BME280;62742;52.136;4.500;2023-08-07T00:01:28;101459.09;;;14.55;81.42
72857;BME280;62742;52.136;4.500;2023-08-07T00:03:54;101458.00;;;14.67;82.57
72857;BME280;62742;52.136;4.500;2023-08-07T00:06:21;101467.63;;;14.70;82.13
72857;BME280;62742;52.136;4.500;2023-08-07T00:08:48;101467.59;;;14.71;82.27
72857;BME280;62742;52.136;4.500;2023-08-07T00:11:14;101461.47;;;14.69;83.47
72857;BME280;62742;52.136;4.500;2023-08-07T00:13:40;101477.06;;;14.82;81.64
72857;BME280;62742;52.136;4.500;2023-08-07T00:16:07;101464.88;;;14.74;81.70
72857;BME280;62742;52.136;4.500;2023-08-07T00:18:37;101456.03;;;14.75;80.37
72857;BME280;62742;52.136;4.500;2023-08-07T00:21:03;101469.25;;;14.75;81.09
72857;BME280;62742;52.136;4.500;2023-08-07T00:23:30;101455.16;;;14.75;82.60
72857;BME280;62742;52.136;4.500;2023-08-07T00:25:56;101472.59;;;14.84;82.06
72857;BME280;62742;52.136;4.500;2023-08-07T00:28:22;101477.09;;;14.80;84.24
72857;BME280;62742;52.136;4.500;2023-08-07T00:30:49;101481.09;;;14.59;86.34
72857;BME280;62742;52.136;4.500;2023-08-07T00:33:15;101474.59;;;14.32;87.11
72857;BME280;62742;52.136;4.500;2023-08-07T00:35:42;101477.66;;;14.10;88.28
72857;BME280;62742;52.136;4.500;2023-08-07T00:38:08;101483.78;;;14.12;87.29
72857;BME280;62742;52.136;4.500;2023-08-07T00:40:38;101473.38;;;14.06;85.18
72857;BME280;62742;52.136;4.500;2023-08-07T00:43:06;101485.50;;;14.15;87.24
72857;BME280;62742;52.136;4.500;2023-08-07T00:45:38;101471.03;;;13.91;86.83
72857;BME280;62742;52.136;4.500;2023-08-07T00:48:08;101473.38;;;14.05;89.10
72857;BME280;62742;52.136;4.500;2023-08-07T00:50:36;101483.72;;;14.17;88.56
72857;BME280;62742;52.136;4.500;2023-08-07T00:53:04;101487.09;;;14.24;88.82
72857;BME280;62742;52.136;4.500;2023-08-07T00:55:31;101483.41;;;14.31;89.48
72857;BME280;62742;52.136;4.500;2023-08-07T00:57:58;101484.44;;;14.25;90.88
72857;BME280;62742;52.136;4.500;2023-08-07T01:00:27;101485.16;;;14.33;91.23
72857;BME280;62742;52.136;4.500;2023-08-07T01:02:56;101482.53;;;14.32;91.13
72857;BME280;62742;52.136;4.500;2023-08-07T01:05:24;101479.00;;;14.31;89.51
72857;BME280;62742;52.136;4.500;2023-08-07T01:07:54;101477.38;;;14.24;87.92
72857;BME280;62742;52.136;4.500;2023-08-07T01:10:46;101482.78;;;14.19;88.79
72857;BME280;62742;52.136;4.500;2023-08-07T01:13:29;101472.75;;;14.35;86.01
72857;BME280;62742;52.136;4.500;2023-08-07T01:16:05;101492.88;;;14.43;84.50
72857;BME280;62742;52.136;4.500;2023-08-07T01:18:40;101477.13;;;14.36;85.49
72857;BME280;62742;52.136;4.500;2023-08-07T01:21:19;101484.00;;;14.45;85.99
72857;BME280;62742;52.136;4.500;2023-08-07T01:23:47;101489.41;;;14.40;85.97
72857;BME280;62742;52.136;4.500;2023-08-07T01:26:15;101485.00;;;14.39;87.05
72857;BME280;62742;52.136;4.500;2023-08-07T01:29:09;101493.16;;;14.29;87.94
72857;BME280;62742;52.136;4.500;2023-08-07T01:31:42;101495.09;;;14.20;89.07
72857;BME280;62742;52.136;4.500;2023-08-07T01:34:14;101495.88;;;14.24;88.80
72857;BME280;62742;52.136;4.500;2023-08-07T01:36:48;101494.28;;;14.17;89.06
72857;BME280;62742;52.136;4.500;2023-08-07T01:39:17;101491.59;;;14.18;86.65
72857;BME280;62742;52.136;4.500;2023-08-07T01:41:46;101483.25;;;14.40;85.72
72857;BME280;62742;52.136;4.500;2023-08-07T01:44:13;101486.09;;;14.29;86.30
72857;BME280;62742;52.136;4.500;2023-08-07T01:46:40;101485.97;;;14.35;83.07
72857;BME280;62742;52.136;4.500;2023-08-07T01:49:06;101485.06;;;14.36;81.89
72857;BME280;62742;52.136;4.500;2023-08-07T01:51:33;101487.63;;;14.39;82.99
72857;BME280;62742;52.136;4.500;2023-08-07T01:53:59;101492.69;;;14.52;82.80
72857;BME280;62742;52.136;4.500;2023-08-07T01:56:26;101494.41;;;14.53;82.53
72857;BME280;62742;52.136;4.500;2023-08-07T01:58:52;101495.19;;;14.59;82.73
72857;BME280;62742;52.136;4.500;2023-08-07T02:01:19;101494.31;;;14.59;83.56
72857;BME280;62742;52.136;4.500;2023-08-07T02:03:45;101488.13;;;14.60;82.93
72857;BME280;62742;52.136;4.500;2023-08-07T02:06:11;101494.88;;;14.73;80.67
72857;BME280;62742;52.136;4.500;2023-08-07T02:08:38;101492.31;;;14.69;81.99
72857;BME280;62742;52.136;4.500;2023-08-07T02:11:04;101498.63;;;14.63;81.29
72857;BME280;62742;52.136;4.500;2023-08-07T02:13:30;101493.34;;;14.63;82.05
72857;BME280;62742;52.136;4.500;2023-08-07T02:15:57;101494.94;;;14.70;82.62
72857;BME280;62742;52.136;4.500;2023-08-07T02:18:25;101492.25;;;14.72;82.41
72857;BME280;62742;52.136;4.500;2023-08-07T02:20:52;101493.34;;;14.63;83.17
72857;BME280;62742;52.136;4.500;2023-08-07T02:23:19;101501.28;;;14.63;83.56
72857;BME280;62742;52.136;4.500;2023-08-07T02:25:47;101505.50;;;14.72;84.43
72857;BME280;62742;52.136;4.500;2023-08-07T02:28:14;101511.59;;;14.75;84.51
72857;BME280;62742;52.136;4.500;2023-08-07T02:30:41;101520.53;;;14.70;83.87
72857;BME280;62742;52.136;4.500;2023-08-07T02:33:07;101515.25;;;14.70;85.20
72857;BME280;62742;52.136;4.500;2023-08-07T02:35:34;101495.84;;;14.71;86.78
72857;BME280;62742;52.136;4.500;2023-08-07T02:38:00;101502.44;;;14.48;89.76
72857;BME280;62742;52.136;4.500;2023-08-07T02:40:27;101508.84;;;14.36;91.76
72857;BME280;62742;52.136;4.500;2023-08-07T02:42:53;101504.53;;;14.32;92.26
72857;BME280;62742;52.136;4.500;2023-08-07T02:45:19;101505.38;;;14.34;92.82
72857;BME280;62742;52.136;4.500;2023-08-07T02:47:46;101505.66;;;14.20;93.47
72857;BME280;62742;52.136;4.500;2023-08-07T02:50:13;101509.06;;;14.26;93.93
72857;BME280;62742;52.136;4.500;2023-08-07T02:52:39;101507.28;;;14.26;94.11
72857;BME280;62742;52.136;4.500;2023-08-07T02:55:06;101501.94;;;14.29;93.49
72857;BME280;62742;52.136;4.500;2023-08-07T02:57:32;101505.34;;;14.36;92.85
72857;BME280;62742;52.136;4.500;2023-08-07T02:59:59;101507.25;;;14.29;89.08
72857;BME280;62742;52.136;4.500;2023-08-07T03:02:26;101501.09;;;14.29;87.66
72857;BME280;62742;52.136;4.500;2023-08-07T03:04:52;101502.78;;;14.31;89.92
72857;BME280;62742;52.136;4.500;2023-08-07T03:07:19;101501.69;;;14.41;87.90
72857;BME280;62742;52.136;4.500;2023-08-07T03:09:46;101500.84;;;14.39;85.34
72857;BME280;62742;52.136;4.500;2023-08-07T03:12:15;101493.84;;;14.38;86.88
72857;BME280;62742;52.136;4.500;2023-08-07T03:14:42;101491.91;;;14.47;88.08
72857;BME280;62742;52.136;4.500;2023-08-07T03:17:08;101496.50;;;14.38;90.19
72857;BME280;62742;52.136;4.500;2023-08-07T03:19:35;101498.03;;;14.49;88.81
72857;BME280;62742;52.136;4.500;2023-08-07T03:22:01;101496.16;;;14.54;89.66
72857;BME280;62742;52.136;4.500;2023-08-07T03:24:28;101502.25;;;14.59;89.86
72857;BME280;62742;52.136;4.500;2023-08-07T03:26:55;101495.16;;;14.61;89.91
72857;BME280;62742;52.136;4.500;2023-08-07T03:29:22;101490.53;;;14.71;90.20
72857;BME280;62742;52.136;4.500;2023-08-07T03:31:49;101497.75;;;14.64;91.43
72857;BME280;62742;52.136;4.500;2023-08-07T03:34:15;101503.75;;;14.72;90.88
72857;BME280;62742;52.136;4.500;2023-08-07T03:36:42;101494.94;;;14.70;91.53
72857;BME280;62742;52.136;4.500;2023-08-07T03:39:08;101501.00;;;14.75;90.63
72857;BME280;62742;52.136;4.500;2023-08-07T03:41:36;101501.09;;;14.72;90.75
72857;BME280;62742;52.136;4.500;2023-08-07T03:44:03;101505.75;;;14.61;91.11
72857;BME280;62742;52.136;4.500;2023-08-07T03:46:30;101496.03;;;14.62;91.23
72857;BME280;62742;52.136;4.500;2023-08-07T03:48:56;101505.34;;;14.80;90.14
72857;BME280;62742;52.136;4.500;2023-08-07T03:51:22;101508.75;;;14.85;89.55
72857;BME280;62742;52.136;4.500;2023-08-07T03:53:49;101506.31;;;14.74;89.86
72857;BME280;62742;52.136;4.500;2023-08-07T03:56:15;101491.19;;;14.81;89.46
72857;BME280;62742;52.136;4.500;2023-08-07T03:58:42;101500.19;;;14.72;87.08
72857;BME280;62742;52.136;4.500;2023-08-07T04:01:08;101499.03;;;14.85;85.72
72857;BME280;62742;52.136;4.500;2023-08-07T04:03:36;101494.75;;;14.80;83.69
72857;BME280;62742;52.136;4.500;2023-08-07T04:06:03;101519.53;;;14.75;83.95
72857;BME280;62742;52.136;4.500;2023-08-07T04:08:31;101498.00;;;14.91;83.00
72857;BME280;62742;52.136;4.500;2023-08-07T04:11:04;101495.53;;;14.85;83.14
72857;BME280;62742;52.136;4.500;2023-08-07T04:13:31;101508.75;;;14.85;83.08
72857;BME280;62742;52.136;4.500;2023-08-07T04:15:58;101504.81;;;15.01;83.84
72857;BME280;62742;52.136;4.500;2023-08-07T04:18:26;101505.88;;;14.94;82.01
72857;BME280;62742;52.136;4.500;2023-08-07T04:20:54;101522.69;;;14.93;82.07
72857;BME280;62742;52.136;4.500;2023-08-07T04:23:21;101516.47;;;14.94;82.49
72857;BME280;62742;52.136;4.500;2023-08-07T04:25:49;101512.44;;;14.77;82.94
72857;BME280;62742;52.136;4.500;2023-08-07T04:28:16;101521.34;;;14.73;83.88
72857;BME280;62742;52.136;4.500;2023-08-07T04:30:44;101511.69;;;14.72;83.85
72857;BME280;62742;52.136;4.500;2023-08-07T04:33:11;101515.97;;;14.76;83.13
72857;BME280;62742;52.136;4.500;2023-08-07T04:35:38;101520.28;;;14.81;82.39
72857;BME280;62742;52.136;4.500;2023-08-07T04:38:06;101520.31;;;14.79;81.20
72857;BME280;62742;52.136;4.500;2023-08-07T04:40:34;101525.47;;;14.85;81.25
72857;BME280;62742;52.136;4.500;2023-08-07T04:43:00;101536.19;;;14.79;81.39
72857;BME280;62742;52.136;4.500;2023-08-07T04:45:28;101533.59;;;14.77;81.25
72857;BME280;62742;52.136;4.500;2023-08-07T04:47:54;101547.44;;;14.89;80.76
72857;BME280;62742;52.136;4.500;2023-08-07T04:50:21;101535.22;;;14.85;79.66
72857;BME280;62742;52.136;4.500;2023-08-07T04:52:47;101536.94;;;14.86;80.31
72857;BME280;62742;52.136;4.500;2023-08-07T04:55:14;101537.22;;;14.73;80.49
72857;BME280;62742;52.136;4.500;2023-08-07T04:57:40;101542.44;;;14.76;80.24
72857;BME280;62742;52.136;4.500;2023-08-07T05:00:07;101553.91;;;14.75;84.61
72857;BME280;62742;52.136;4.500;2023-08-07T05:02:36;101562.34;;;14.51;90.29
72857;BME280;62742;52.136;4.500;2023-08-07T05:05:03;101551.81;;;14.04;94.23
72857;BME280;62742;52.136;4.500;2023-08-07T05:07:33;101558.81;;;14.05;95.37
72857;BME280;62742;52.136;4.500;2023-08-07T05:10:04;101564.00;;;14.11;96.41
72857;BME280;62742;52.136;4.500;2023-08-07T05:12:31;101562.91;;;14.23;95.79
72857;BME280;62742;52.136;4.500;2023-08-07T05:14:57;101553.47;;;14.08;96.80
72857;BME280;62742;52.136;4.500;2023-08-07T05:17:24;101561.19;;;14.19;96.70
72857;BME280;62742;52.136;4.500;2023-08-07T05:19:50;101557.63;;;14.23;96.53
72857;BME280;62742;52.136;4.500;2023-08-07T05:22:17;101567.25;;;14.24;97.12
72857;BME280;62742;52.136;4.500;2023-08-07T05:24:43;101566.25;;;14.31;95.49
72857;BME280;62742;52.136;4.500;2023-08-07T05:27:12;101570.88;;;14.20;96.22
72857;BME280;62742;52.136;4.500;2023-08-07T05:29:38;101576.09;;;14.25;95.89
72857;BME280;62742;52.136;4.500;2023-08-07T05:32:13;101569.03;;;14.24;96.08
72857;BME280;62742;52.136;4.500;2023-08-07T05:34:43;101561.03;;;14.28;96.81
72857;BME280;62742;52.136;4.500;2023-08-07T05:37:12;101565.09;;;14.45;95.35
72857;BME280;62742;52.136;4.500;2023-08-07T05:39:39;101560.91;;;14.34;96.21
72857;BME280;62742;52.136;4.500;2023-08-07T05:42:05;101568.88;;;14.31;96.14
72857;BME280;62742;52.136;4.500;2023-08-07T05:44:33;101573.34;;;14.29;94.69
72857;BME280;62742;52.136;4.500;2023-08-07T05:47:00;101578.44;;;14.40;92.63
72857;BME280;62742;52.136;4.500;2023-08-07T05:49:26;101579.47;;;14.31;94.57
72857;BME280;62742;52.136;4.500;2023-08-07T05:51:53;101582.25;;;14.25;94.76
72857;BME280;62742;52.136;4.500;2023-08-07T05:54:20;101591.81;;;14.31;94.20
72857;BME280;62742;52.136;4.500;2023-08-07T05:56:46;101592.69;;;14.31;94.69
72857;BME280;62742;52.136;4.500;2023-08-07T05:59:13;101593.69;;;14.24;93.60
72857;BME280;62742;52.136;4.500;2023-08-07T06:01:39;101591.66;;;14.40;93.15
72857;BME280;62742;52.136;4.500;2023-08-07T06:04:06;101596.84;;;14.45;92.32
72857;BME280;62742;52.136;4.500;2023-08-07T06:06:33;101601.34;;;14.39;91.03
72857;BME280;62742;52.136;4.500;2023-08-07T06:09:02;101593.22;;;14.50;91.75
72857;BME280;62742;52.136;4.500;2023-08-07T06:11:29;101604.59;;;14.54;90.95
72857;BME280;62742;52.136;4.500;2023-08-07T06:13:56;101598.59;;;14.46;91.12
72857;BME280;62742;52.136;4.500;2023-08-07T06:16:22;101602.22;;;14.40;91.35
72857;BME280;62742;52.136;4.500;2023-08-07T06:18:48;101610.25;;;14.35;90.34
72857;BME280;62742;52.136;4.500;2023-08-07T06:21:15;101615.53;;;14.35;90.64
72857;BME280;62742;52.136;4.500;2023-08-07T06:23:42;101605.69;;;14.44;87.62
72857;BME280;62742;52.136;4.500;2023-08-07T06:26:09;101613.47;;;14.50;85.33
72857;BME280;62742;52.136;4.500;2023-08-07T06:28:35;101620.59;;;14.48;85.39
72857;BME280;62742;52.136;4.500;2023-08-07T06:31:07;101616.22;;;14.90;85.75
72857;BME280;62742;52.136;4.500;2023-08-07T06:33:38;101621.97;;;15.50;82.83
72857;BME280;62742;52.136;4.500;2023-08-07T06:36:06;101618.22;;;15.96;80.40
72857;BME280;62742;52.136;4.500;2023-08-07T06:38:35;101611.16;;;16.30;77.41
72857;BME280;62742;52.136;4.500;2023-08-07T06:41:02;101627.91;;;16.32;76.68
72857;BME280;62742;52.136;4.500;2023-08-07T06:43:29;101623.13;;;16.12;73.53
72857;BME280;62742;52.136;4.500;2023-08-07T06:45:56;101621.53;;;16.04;76.46
72857;BME280;62742;52.136;4.500;2023-08-07T06:48:23;101633.66;;;16.15;75.74
72857;BME280;62742;52.136;4.500;2023-08-07T06:50:50;101624.84;;;16.14;77.38
72857;BME280;62742;52.136;4.500;2023-08-07T06:53:18;101628.09;;;16.24;76.13
72857;BME280;62742;52.136;4.500;2023-08-07T06:55:45;101623.53;;;16.93;75.92
72857;BME280;62742;52.136;4.500;2023-08-07T06:58:12;101633.53;;;17.43;74.92
72857;BME280;62742;52.136;4.500;2023-08-07T07:00:38;101639.44;;;17.80;71.60
72857;BME280;62742;52.136;4.500;2023-08-07T07:03:05;101633.31;;;17.77;68.51
72857;BME280;62742;52.136;4.500;2023-08-07T07:05:33;101642.41;;;17.70;68.20
72857;BME280;62742;52.136;4.500;2023-08-07T07:08:00;101630.75;;;17.74;65.17
72857;BME280;62742;52.136;4.500;2023-08-07T07:10:26;101635.16;;;18.04;66.21
72857;BME280;62742;52.136;4.500;2023-08-07T07:12:53;101641.81;;;18.16;66.99
72857;BME280;62742;52.136;4.500;2023-08-07T07:15:19;101639.31;;;18.36;64.91
72857;BME280;62742;52.136;4.500;2023-08-07T07:17:46;101639.78;;;18.98;65.26
72857;BME280;62742;52.136;4.500;2023-08-07T07:20:12;101636.44;;;18.93;63.14
72857;BME280;62742;52.136;4.500;2023-08-07T07:22:39;101644.63;;;18.36;62.74
72857;BME280;62742;52.136;4.500;2023-08-07T07:25:07;101640.56;;;18.01;64.81
72857;BME280;62742;52.136;4.500;2023-08-07T07:27:35;101656.13;;;18.38;63.75
72857;BME280;62742;52.136;4.500;2023-08-07T07:30:01;101650.84;;;18.62;62.92
72857;BME280;62742;52.136;4.500;2023-08-07T07:32:28;101646.09;;;18.95;63.95
72857;BME280;62742;52.136;4.500;2023-08-07T07:34:55;101647.78;;;18.98;63.34
72857;BME280;62742;52.136;4.500;2023-08-07T07:37:22;101658.78;;;19.12;61.89
72857;BME280;62742;52.136;4.500;2023-08-07T07:39:48;101647.66;;;18.52;63.01
72857;BME280;62742;52.136;4.500;2023-08-07T07:42:16;101661.66;;;18.32;65.66
72857;BME280;62742;52.136;4.500;2023-08-07T07:44:43;101654.06;;;18.46;63.42
72857;BME280;62742;52.136;4.500;2023-08-07T07:47:09;101662.31;;;18.64;63.00
72857;BME280;62742;52.136;4.500;2023-08-07T07:49:36;101673.88;;;18.88;63.66
72857;BME280;62742;52.136;4.500;2023-08-07T07:52:03;101675.94;;;18.55;59.75
72857;BME280;62742;52.136;4.500;2023-08-07T07:54:30;101676.47;;;18.39;61.17
72857;BME280;62742;52.136;4.500;2023-08-07T07:56:56;101679.00;;;18.69;60.32
72857;BME280;62742;52.136;4.500;2023-08-07T07:59:23;101677.50;;;18.85;59.50
72857;BME280;62742;52.136;4.500;2023-08-07T08:01:49;101683.66;;;19.35;60.31
72857;BME280;62742;52.136;4.500;2023-08-07T08:04:17;101683.75;;;19.32;59.97
72857;BME280;62742;52.136;4.500;2023-08-07T08:06:45;101679.13;;;19.15;57.82
72857;BME280;62742;52.136;4.500;2023-08-07T08:09:14;101680.88;;;19.38;58.91
72857;BME280;62742;52.136;4.500;2023-08-07T08:11:41;101682.63;;;19.39;57.57
72857;BME280;62742;52.136;4.500;2023-08-07T08:14:08;101689.56;;;19.43;57.64
72857;BME280;62742;52.136;4.500;2023-08-07T08:16:34;101685.63;;;19.97;57.93
72857;BME280;62742;52.136;4.500;2023-08-07T08:19:06;101694.56;;;19.96;56.97
72857;BME280;62742;52.136;4.500;2023-08-07T08:21:37;101693.16;;;20.30;55.32
72857;BME280;62742;52.136;4.500;2023-08-07T08:24:05;101708.03;;;19.93;52.63
72857;BME280;62742;52.136;4.500;2023-08-07T08:26:32;101709.03;;;19.91;54.92
72857;BME280;62742;52.136;4.500;2023-08-07T08:29:00;101710.22;;;19.84;54.03
72857;BME280;62742;52.136;4.500;2023-08-07T08:31:26;101704.47;;;20.15;55.08
72857;BME280;62742;52.136;4.500;2023-08-07T08:33:55;101714.06;;;19.98;56.82
72857;BME280;62742;52.136;4.500;2023-08-07T08:36:21;101715.91;;;19.96;55.85
72857;BME280;62742;52.136;4.500;2023-08-07T08:38:48;101717.72;;;19.50;54.97
72857;BME280;62742;52.136;4.500;2023-08-07T08:41:16;101720.34;;;19.74;58.92
72857;BME280;62742;52.136;4.500;2023-08-07T08:43:45;101732.63;;;19.56;58.47
72857;BME280;62742;52.136;4.500;2023-08-07T08:46:15;101727.34;;;19.78;57.28
72857;BME280;62742;52.136;4.500;2023-08-07T08:48:50;101738.13;;;19.97;56.16
72857;BME280;62742;52.136;4.500;2023-08-07T08:51:19;101735.63;;;20.14;56.50
72857;BME280;62742;52.136;4.500;2023-08-07T08:53:47;101736.03;;;19.83;57.37
72857;BME280;62742;52.136;4.500;2023-08-07T08:56:15;101730.53;;;19.17;58.28
72857;BME280;62742;52.136;4.500;2023-08-07T08:58:43;101732.56;;;19.34;55.55
72857;BME280;62742;52.136;4.500;2023-08-07T09:01:10;101733.22;;;19.17;57.02
72857;BME280;62742;52.136;4.500;2023-08-07T09:03:38;101739.06;;;19.03;59.79
72857;BME280;62742;52.136;4.500;2023-08-07T09:06:06;101730.06;;;19.29;56.00
72857;BME280;62742;52.136;4.500;2023-08-07T09:08:34;101727.53;;;20.38;58.90
72857;BME280;62742;52.136;4.500;2023-08-07T09:11:02;101730.38;;;20.33;56.37
72857;BME280;62742;52.136;4.500;2023-08-07T09:13:31;101732.06;;;19.93;56.25
72857;BME280;62742;52.136;4.500;2023-08-07T09:16:00;101742.56;;;20.18;56.21
72857;BME280;62742;52.136;4.500;2023-08-07T09:18:28;101745.44;;;20.14;56.46
72857;BME280;62742;52.136;4.500;2023-08-07T09:20:55;101736.53;;;20.35;57.15
72857;BME280;62742;52.136;4.500;2023-08-07T09:23:24;101748.50;;;21.09;54.77
72857;BME280;62742;52.136;4.500;2023-08-07T09:26:04;101742.16;;;20.50;53.53
72857;BME280;62742;52.136;4.500;2023-08-07T09:28:32;101747.00;;;20.62;53.97
72857;BME280;62742;52.136;4.500;2023-08-07T09:30:59;101755.03;;;20.61;57.32
72857;BME280;62742;52.136;4.500;2023-08-07T09:33:29;101742.97;;;20.52;55.74
72857;BME280;62742;52.136;4.500;2023-08-07T09:36:01;101752.47;;;20.80;55.57
72857;BME280;62742;52.136;4.500;2023-08-07T09:38:29;101755.00;;;21.03;54.67
72857;BME280;62742;52.136;4.500;2023-08-07T09:41:01;101750.81;;;20.77;55.28
72857;BME280;62742;52.136;4.500;2023-08-07T09:43:33;101765.84;;;20.58;53.75
72857;BME280;62742;52.136;4.500;2023-08-07T09:46:07;101767.00;;;20.52;54.26
72857;BME280;62742;52.136;4.500;2023-08-07T09:48:41;101769.78;;;20.49;54.96
72857;BME280;62742;52.136;4.500;2023-08-07T09:51:10;101772.91;;;20.38;53.15
72857;BME280;62742;52.136;4.500;2023-08-07T09:53:36;101777.31;;;20.17;56.01
72857;BME280;62742;52.136;4.500;2023-08-07T09:56:03;101771.22;;;20.35;54.94
72857;BME280;62742;52.136;4.500;2023-08-07T09:58:31;101773.94;;;20.56;53.09
72857;BME280;62742;52.136;4.500;2023-08-07T10:01:02;101776.38;;;20.83;53.88
72857;BME280;62742;52.136;4.500;2023-08-07T10:03:31;101769.13;;;20.22;52.40
72857;BME280;62742;52.136;4.500;2023-08-07T10:05:58;101771.50;;;20.29;54.71
72857;BME280;62742;52.136;4.500;2023-08-07T10:08:25;101771.53;;;20.92;53.88
72857;BME280;62742;52.136;4.500;2023-08-07T10:10:53;101771.78;;;21.26;52.42
72857;BME280;62742;52.136;4.500;2023-08-07T10:13:21;101778.81;;;21.28;52.26
72857;BME280;62742;52.136;4.500;2023-08-07T10:15:50;101782.53;;;20.85;53.99
72857;BME280;62742;52.136;4.500;2023-08-07T10:18:16;101785.31;;;21.42;53.04
72857;BME280;62742;52.136;4.500;2023-08-07T10:20:43;101783.97;;;21.52;52.29
72857;BME280;62742;52.136;4.500;2023-08-07T10:23:11;101784.16;;;21.68;51.88
72857;BME280;62742;52.136;4.500;2023-08-07T10:25:41;101790.56;;;22.02;50.14
72857;BME280;62742;52.136;4.500;2023-08-07T10:28:15;101788.69;;;22.04;50.06
72857;BME280;62742;52.136;4.500;2023-08-07T10:30:45;101787.78;;;22.22;51.86
72857;BME280;62742;52.136;4.500;2023-08-07T10:33:13;101784.78;;;21.92;48.67
72857;BME280;62742;52.136;4.500;2023-08-07T10:35:47;101795.56;;;21.72;51.52
72857;BME280;62742;52.136;4.500;2023-08-07T10:38:14;101799.88;;;22.12;51.54
72857;BME280;62742;52.136;4.500;2023-08-07T10:41:14;101788.13;;;21.59;52.65
72857;BME280;62742;52.136;4.500;2023-08-07T10:43:42;101786.81;;;21.68;51.15
72857;BME280;62742;52.136;4.500;2023-08-07T10:48:47;101796.25;;;21.37;53.01
72857;BME280;62742;52.136;4.500;2023-08-07T10:51:19;101803.41;;;20.96;52.11
72857;BME280;62742;52.136;4.500;2023-08-07T10:53:49;101806.75;;;21.21;52.70
72857;BME280;62742;52.136;4.500;2023-08-07T10:56:38;101801.06;;;21.69;52.13
72857;BME280;62742;52.136;4.500;2023-08-07T10:59:09;101798.66;;;21.62;51.12
72857;BME280;62742;52.136;4.500;2023-08-07T11:01:41;101791.22;;;22.07;50.71
72857;BME280;62742;52.136;4.500;2023-08-07T11:04:11;101789.81;;;22.17;48.49
72857;BME280;62742;52.136;4.500;2023-08-07T11:06:41;101795.59;;;22.08;50.55
72857;BME280;62742;52.136;4.500;2023-08-07T11:09:09;101795.13;;;21.62;53.96
72857;BME280;62742;52.136;4.500;2023-08-07T11:14:14;101791.47;;;22.20;48.22
72857;BME280;62742;52.136;4.500;2023-08-07T11:16:43;101792.31;;;21.84;48.47
72857;BME280;62742;52.136;4.500;2023-08-07T11:19:13;101807.59;;;22.18;50.73
72857;BME280;62742;52.136;4.500;2023-08-07T11:21:41;101804.25;;;22.51;50.81
72857;BME280;62742;52.136;4.500;2023-08-07T11:24:12;101811.25;;;22.54;48.95
72857;BME280;62742;52.136;4.500;2023-08-07T11:26:39;101806.03;;;22.14;49.40
72857;BME280;62742;52.136;4.500;2023-08-07T11:29:08;101804.94;;;21.99;48.17
72857;BME280;62742;52.136;4.500;2023-08-07T11:31:35;101799.16;;;22.28;46.15
72857;BME280;62742;52.136;4.500;2023-08-07T11:34:01;101805.66;;;22.03;49.32
72857;BME280;62742;52.136;4.500;2023-08-07T11:36:28;101809.38;;;21.81;48.58
72857;BME280;62742;52.136;4.500;2023-08-07T11:38:55;101807.56;;;22.01;48.31
72857;BME280;62742;52.136;4.500;2023-08-07T11:41:22;101811.19;;;21.62;49.12
72857;BME280;62742;52.136;4.500;2023-08-07T11:43:48;101813.06;;;21.60;46.61
72857;BME280;62742;52.136;4.500;2023-08-07T11:46:16;101808.94;;;21.72;46.33
72857;BME280;62742;52.136;4.500;2023-08-07T11:48:43;101809.38;;;22.00;46.11
72857;BME280;62742;52.136;4.500;2023-08-07T11:51:10;101808.66;;;21.97;45.04
72857;BME280;62742;52.136;4.500;2023-08-07T11:53:39;101818.41;;;22.53;45.82
72857;BME280;62742;52.136;4.500;2023-08-07T11:56:09;101811.84;;;22.41;45.48
72857;BME280;62742;52.136;4.500;2023-08-07T11:58:41;101803.94;;;22.02;47.74
72857;BME280;62742;52.136;4.500;2023-08-07T12:01:12;101811.09;;;21.82;43.38
72857;BME280;62742;52.136;4.500;2023-08-07T12:03:43;101811.69;;;21.89;47.46
72857;BME280;62742;52.136;4.500;2023-08-07T12:06:16;101813.97;;;22.16;46.10
72857;BME280;62742;52.136;4.500;2023-08-07T12:08:43;101811.53;;;22.11;48.86
72857;BME280;62742;52.136;4.500;2023-08-07T12:11:11;101803.28;;;22.16;50.13
72857;BME280;62742;52.136;4.500;2023-08-07T12:13:41;101806.06;;;21.95;49.45
72857;BME280;62742;52.136;4.500;2023-08-07T12:16:09;101807.66;;;21.61;51.24
72857;BME280;62742;52.136;4.500;2023-08-07T12:18:37;101813.72;;;21.65;52.79
72857;BME280;62742;52.136;4.500;2023-08-07T12:21:07;101813.13;;;21.77;52.04
72857;BME280;62742;52.136;4.500;2023-08-07T12:23:34;101807.19;;;22.09;52.07
72857;BME280;62742;52.136;4.500;2023-08-07T12:26:03;101801.06;;;22.43;50.98
72857;BME280;62742;52.136;4.500;2023-08-07T12:28:34;101807.38;;;22.59;49.18
72857;BME280;62742;52.136;4.500;2023-08-07T12:31:02;101801.63;;;22.50;51.10
72857;BME280;62742;52.136;4.500;2023-08-07T12:33:29;101805.41;;;22.27;49.45
72857;BME280;62742;52.136;4.500;2023-08-07T12:35:57;101804.88;;;22.01;49.25
72857;BME280;62742;52.136;4.500;2023-08-07T12:38:24;101805.09;;;21.77;50.77
72857;BME280;62742;52.136;4.500;2023-08-07T12:40:51;101795.50;;;21.73;50.08
72857;BME280;62742;52.136;4.500;2023-08-07T12:43:18;101798.75;;;21.61;51.30
72857;BME280;62742;52.136;4.500;2023-08-07T12:45:45;101807.06;;;21.93;49.11
72857;BME280;62742;52.136;4.500;2023-08-07T12:48:11;101811.81;;;22.05;47.97
72857;BME280;62742;52.136;4.500;2023-08-07T12:50:38;101807.13;;;22.47;49.32
72857;BME280;62742;52.136;4.500;2023-08-07T12:53:06;101820.25;;;22.70;49.16
72857;BME280;62742;52.136;4.500;2023-08-07T12:55:34;101814.16;;;23.02;50.43
72857;BME280;62742;52.136;4.500;2023-08-07T12:58:00;101805.56;;;22.95;50.03
72857;BME280;62742;52.136;4.500;2023-08-07T13:00:27;101799.81;;;23.03;47.61